createdAt,value
2022-10-10T00:01:19.504Z,2.63
2022-10-10T00:03:46.660Z,2.10
2022-10-10T00:06:14.203Z,2.50
2022-10-10T00:08:41.590Z,2.40
2022-10-10T00:11:08.960Z,2.70
2022-10-10T00:13:35.750Z,2.90
2022-10-10T00:16:02.925Z,2.90
2022-10-10T00:18:30.119Z,2.73
2022-10-10T00:20:56.715Z,2.50
2022-10-10T00:23:23.791Z,2.90
2022-10-10T00:25:51.090Z,3.13
2022-10-10T00:28:18.404Z,2.67
2022-10-10T00:30:44.918Z,2.50
2022-10-10T00:33:11.876Z,2.57
2022-10-10T00:35:38.663Z,2.40
2022-10-10T00:38:05.145Z,2.50
2022-10-10T00:40:31.945Z,3.10
2022-10-10T00:42:58.756Z,2.83
2022-10-10T00:45:43.052Z,3.03
2022-10-10T00:48:14.208Z,2.43
2022-10-10T00:50:52.248Z,2.77
2022-10-10T00:53:23.425Z,2.50
2022-10-10T00:55:50.549Z,2.40
2022-10-10T00:58:17.535Z,2.50
2022-10-10T01:00:44.094Z,2.33
2022-10-10T01:03:10.552Z,2.63
2022-10-10T01:05:37.736Z,3.43
2022-10-10T01:08:07.123Z,2.77
2022-10-10T01:10:44.735Z,2.50
2022-10-10T01:13:42.856Z,2.43
2022-10-10T01:16:35.569Z,2.90
2022-10-10T01:19:20.279Z,2.67
2022-10-10T01:21:55.808Z,2.50
2022-10-10T01:24:25.151Z,2.40
2022-10-10T01:27:08.785Z,2.93
2022-10-10T01:29:39.008Z,2.77
2022-10-10T01:32:14.619Z,2.50
2022-10-10T01:35:03.525Z,3.07
2022-10-10T01:37:50.915Z,2.30
2022-10-10T01:40:43.273Z,2.90
2022-10-10T01:43:11.438Z,2.07
2022-10-10T01:45:43.127Z,2.50
2022-10-10T01:48:09.683Z,2.37
2022-10-10T01:50:56.760Z,2.67
2022-10-10T01:53:47.562Z,2.20
2022-10-10T01:56:25.882Z,2.40
2022-10-10T01:59:10.773Z,2.47
2022-10-10T02:01:54.727Z,2.20
2022-10-10T02:04:27.146Z,2.40
2022-10-10T02:07:00.206Z,2.70
2022-10-10T02:09:40.659Z,2.17
2022-10-10T02:12:10.928Z,2.50
2022-10-10T02:14:46.010Z,2.40
2022-10-10T02:17:14.995Z,2.57
2022-10-10T02:19:47.680Z,2.53
2022-10-10T02:22:15.266Z,2.40
2022-10-10T02:24:42.528Z,2.87
2022-10-10T02:27:17.092Z,2.50
2022-10-10T02:29:45.420Z,2.73
2022-10-10T02:32:38.131Z,2.43
2022-10-10T02:35:11.896Z,2.80
2022-10-10T02:37:41.597Z,2.83
2022-10-10T02:40:10.523Z,2.83
2022-10-10T02:42:38.816Z,2.40
2022-10-10T02:45:06.052Z,2.50
2022-10-10T02:47:32.647Z,3.20
2022-10-10T02:49:59.184Z,2.67
2022-10-10T02:52:25.693Z,2.70
2022-10-10T02:54:52.129Z,2.70
2022-10-10T02:57:18.511Z,2.40
2022-10-10T02:59:44.923Z,2.40
2022-10-10T03:02:11.350Z,3.10
2022-10-10T03:04:37.876Z,2.80
2022-10-10T03:07:04.643Z,2.57
2022-10-10T03:09:31.144Z,2.70
2022-10-10T03:11:57.635Z,2.60
2022-10-10T03:14:24.204Z,2.90
2022-10-10T03:16:50.670Z,2.67
2022-10-10T03:19:17.160Z,2.90
2022-10-10T03:21:43.589Z,3.10
2022-10-10T03:24:10.216Z,2.60
2022-10-10T03:26:36.625Z,2.60
2022-10-10T03:29:03.697Z,3.10
2022-10-10T03:31:30.683Z,3.07
2022-10-10T03:33:57.085Z,2.83
2022-10-10T03:36:23.697Z,2.90
2022-10-10T03:38:50.297Z,3.00
2022-10-10T03:41:16.702Z,3.00
2022-10-10T03:43:43.151Z,3.00
2022-10-10T03:46:15.100Z,2.93
2022-10-10T03:48:42.630Z,2.90
2022-10-10T03:51:09.052Z,2.63
2022-10-10T03:53:35.528Z,2.90
2022-10-10T03:56:01.928Z,3.30
2022-10-10T03:58:28.507Z,3.13
2022-10-10T04:01:02.780Z,3.20
2022-10-10T04:03:29.547Z,3.00
2022-10-10T04:05:56.210Z,3.43
2022-10-10T04:08:23.022Z,2.93
2022-10-10T04:10:50.873Z,3.20
2022-10-10T04:13:17.615Z,3.20
2022-10-10T04:15:44.529Z,3.30
2022-10-10T04:18:11.517Z,3.47
2022-10-10T04:20:38.123Z,3.20
2022-10-10T04:23:04.552Z,2.90
2022-10-10T04:25:31.188Z,3.17
2022-10-10T04:28:01.029Z,3.60
2022-10-10T04:30:33.445Z,3.50
2022-10-10T04:33:00.185Z,3.40
2022-10-10T04:35:26.830Z,3.17
2022-10-10T04:37:53.540Z,3.00
2022-10-10T04:40:25.558Z,3.10
2022-10-10T04:42:54.161Z,3.60
2022-10-10T04:45:20.704Z,3.87
2022-10-10T04:47:47.134Z,3.57
2022-10-10T04:50:13.699Z,3.27
2022-10-10T04:52:40.128Z,3.40
2022-10-10T04:55:06.735Z,3.73
2022-10-10T04:57:33.173Z,4.20
2022-10-10T04:59:59.706Z,3.83
2022-10-10T05:02:26.138Z,3.03
2022-10-10T05:04:52.575Z,3.37
2022-10-10T05:07:18.981Z,3.53
2022-10-10T05:09:45.401Z,3.50
2022-10-10T05:12:11.864Z,3.27
2022-10-10T05:14:38.318Z,3.40
2022-10-10T05:17:04.738Z,3.30
2022-10-10T05:19:31.161Z,3.60
2022-10-10T05:21:57.564Z,3.33
2022-10-10T05:24:24.263Z,3.30
2022-10-10T05:26:50.701Z,4.10
2022-10-10T05:29:17.127Z,3.80
2022-10-10T05:31:43.539Z,4.07
2022-10-10T05:34:13.986Z,3.30
2022-10-10T05:36:41.904Z,3.20
2022-10-10T05:39:08.787Z,3.40
2022-10-10T05:41:35.983Z,3.90
2022-10-10T05:44:02.421Z,3.70
2022-10-10T05:46:28.830Z,3.90
2022-10-10T05:48:55.624Z,3.90
2022-10-10T05:51:22.235Z,3.70
2022-10-10T05:53:49.414Z,3.83
2022-10-10T05:56:17.097Z,3.67
2022-10-10T05:58:44.658Z,3.80
2022-10-10T06:01:11.238Z,3.77
2022-10-10T06:03:38.127Z,4.47
2022-10-10T06:06:05.074Z,4.70
2022-10-10T06:08:32.357Z,4.00
2022-10-10T06:11:04.657Z,7.00
2022-10-10T06:13:31.183Z,3.63
2022-10-10T06:15:58.070Z,4.00
2022-10-10T06:18:24.503Z,3.80
2022-10-10T06:20:50.929Z,3.93
2022-10-10T06:23:18.151Z,4.30
2022-10-10T06:25:44.647Z,3.90
2022-10-10T06:28:11.710Z,4.37
2022-10-10T06:30:43.258Z,4.20
2022-10-10T06:33:09.988Z,4.53
2022-10-10T06:35:43.408Z,4.53
2022-10-10T06:38:10.618Z,4.10
2022-10-10T06:40:37.245Z,3.80
2022-10-10T06:43:04.638Z,3.97
2022-10-10T06:45:39.438Z,4.70
2022-10-10T06:48:06.473Z,3.77
2022-10-10T06:50:32.921Z,4.20
2022-10-10T06:52:59.693Z,4.77
2022-10-10T06:55:26.285Z,4.60
2022-10-10T06:57:52.702Z,4.30
2022-10-10T07:00:19.814Z,4.70
2022-10-10T07:02:46.301Z,4.30
2022-10-10T07:05:16.347Z,4.50
2022-10-10T07:07:44.415Z,4.53
2022-10-10T07:10:13.754Z,4.87
2022-10-10T07:12:44.456Z,4.53
2022-10-10T07:15:11.806Z,4.77
2022-10-10T07:17:38.246Z,4.50
2022-10-10T07:20:05.227Z,4.30
2022-10-10T07:22:31.773Z,5.17
2022-10-10T07:24:58.252Z,4.70
2022-10-10T07:27:24.864Z,4.40
2022-10-10T07:29:51.273Z,4.77
2022-10-10T07:32:17.647Z,4.33
2022-10-10T07:34:44.042Z,4.53
2022-10-10T07:37:10.475Z,5.17
2022-10-10T07:39:36.878Z,4.90
2022-10-10T07:42:03.611Z,5.67
2022-10-10T07:44:34.297Z,5.50
2022-10-10T07:47:01.091Z,5.00
2022-10-10T07:49:27.680Z,6.03
2022-10-10T07:51:58.715Z,5.07
2022-10-10T07:54:27.120Z,5.20
2022-10-10T07:56:53.513Z,5.30
2022-10-10T07:59:19.967Z,5.07
2022-10-10T08:01:47.447Z,4.77
2022-10-10T08:04:13.968Z,5.27
2022-10-10T08:06:40.420Z,5.20
2022-10-10T08:09:06.856Z,5.83
2022-10-10T08:11:33.275Z,5.70
2022-10-10T08:13:59.730Z,5.80
2022-10-10T08:16:26.206Z,5.57
2022-10-10T08:18:52.702Z,4.70
2022-10-10T08:21:19.258Z,5.30
2022-10-10T08:23:45.818Z,5.20
2022-10-10T08:26:15.317Z,4.70
2022-10-10T08:28:42.032Z,5.33
2022-10-10T08:31:13.813Z,5.30
2022-10-10T08:33:42.037Z,5.10
2022-10-10T08:36:17.735Z,4.90
2022-10-10T08:38:44.791Z,5.43
2022-10-10T08:41:24.360Z,4.93
2022-10-10T08:44:05.698Z,4.70
2022-10-10T08:46:39.519Z,4.83
2022-10-10T08:49:25.377Z,6.23
2022-10-10T08:52:00.109Z,5.13
2022-10-10T08:54:28.460Z,4.73
2022-10-10T08:56:59.571Z,5.23
2022-10-10T08:59:32.001Z,5.27
2022-10-10T09:02:21.570Z,5.40
2022-10-10T09:04:50.050Z,5.30
2022-10-10T09:07:38.451Z,5.40
2022-10-10T09:10:29.438Z,5.27
2022-10-10T09:13:12.805Z,5.40
2022-10-10T09:15:55.143Z,5.20
2022-10-10T09:18:42.881Z,5.87
2022-10-10T09:21:18.655Z,5.87
2022-10-10T09:24:11.671Z,5.87
2022-10-10T09:26:50.744Z,6.53
2022-10-10T09:29:51.823Z,5.17
2022-10-10T09:32:19.988Z,5.90
2022-10-10T09:34:52.003Z,5.07
2022-10-10T09:37:42.590Z,5.97
2022-10-10T09:40:33.644Z,6.97
2022-10-10T09:43:13.763Z,5.10
2022-10-10T09:45:48.911Z,5.23
2022-10-10T09:48:15.312Z,5.57
2022-10-10T09:50:43.840Z,6.00
2022-10-10T09:53:16.207Z,5.53
2022-10-10T09:55:44.859Z,5.60
2022-10-10T09:58:16.843Z,5.07
2022-10-10T10:00:43.325Z,5.83
2022-10-10T10:03:18.836Z,5.67
2022-10-10T10:06:00.669Z,5.77
2022-10-10T10:08:30.213Z,6.17
2022-10-10T10:10:58.475Z,5.70
2022-10-10T10:13:31.684Z,6.00
2022-10-10T10:16:06.680Z,6.00
2022-10-10T10:18:44.515Z,5.40
2022-10-10T10:21:12.823Z,5.30
2022-10-10T10:23:57.759Z,5.40
2022-10-10T10:26:33.204Z,5.57
2022-10-10T10:28:59.722Z,4.40
2022-10-10T10:31:52.947Z,5.37
2022-10-10T10:34:30.969Z,5.00
2022-10-10T10:37:15.400Z,6.13
2022-10-10T10:40:07.101Z,4.23
2022-10-10T10:43:00.829Z,4.70
2022-10-10T10:45:55.254Z,4.83
2022-10-10T10:48:34.848Z,4.00
2022-10-10T10:51:23.221Z,4.30
2022-10-10T10:53:59.471Z,4.03
2022-10-10T10:56:46.783Z,4.50
2022-10-10T10:59:41.792Z,4.47
2022-10-10T11:02:09.019Z,4.73
2022-10-10T11:05:18.282Z,5.20
2022-10-10T11:07:57.555Z,4.90
2022-10-10T11:10:56.879Z,3.90
2022-10-10T11:13:28.233Z,4.53
2022-10-10T11:16:10.021Z,4.10
2022-10-10T11:19:29.185Z,4.00
2022-10-10T11:22:09.849Z,4.30
2022-10-10T11:24:56.467Z,3.67
2022-10-10T11:27:36.310Z,4.10
2022-10-10T11:30:10.313Z,4.27
2022-10-10T11:32:55.514Z,4.53
2022-10-10T11:35:33.325Z,5.60
2022-10-10T11:38:23.012Z,3.73
2022-10-10T11:40:52.521Z,4.40
2022-10-10T11:43:34.031Z,3.70
2022-10-10T11:46:11.480Z,5.00
2022-10-10T11:49:04.061Z,4.70
2022-10-10T11:52:14.932Z,4.13
2022-10-10T11:54:51.208Z,3.97
2022-10-10T11:57:27.653Z,4.13
2022-10-10T12:00:01.988Z,4.30
2022-10-10T12:02:36.106Z,3.60
2022-10-10T12:05:06.081Z,3.70
2022-10-10T12:07:56.929Z,4.07
2022-10-10T12:10:25.212Z,4.10
2022-10-10T12:12:57.165Z,3.83
2022-10-10T12:15:30.397Z,3.40
2022-10-10T12:17:57.384Z,3.30
2022-10-10T12:20:26.761Z,2.97
2022-10-10T12:23:14.991Z,3.67
2022-10-10T12:25:45.650Z,3.90
2022-10-10T12:28:15.183Z,4.50
2022-10-10T12:30:58.445Z,3.33
2022-10-10T12:33:31.367Z,3.97
2022-10-10T12:36:18.015Z,3.33
2022-10-10T12:39:06.491Z,3.33
2022-10-10T12:41:56.954Z,3.80
2022-10-10T12:44:35.626Z,3.30
2022-10-10T12:47:46.201Z,4.13
2022-10-10T12:50:23.107Z,3.27
2022-10-10T12:52:51.312Z,3.43
2022-10-10T12:55:26.008Z,3.80
2022-10-10T12:57:58.827Z,3.40
2022-10-10T13:00:28.012Z,4.53
2022-10-10T13:02:57.447Z,3.10
2022-10-10T13:05:35.035Z,4.07
2022-10-10T13:08:08.283Z,3.30
2022-10-10T13:10:34.738Z,3.73
2022-10-10T13:13:05.957Z,3.23
2022-10-10T13:15:34.435Z,3.67
2022-10-10T13:18:01.114Z,3.10
2022-10-10T13:20:29.866Z,3.70
2022-10-10T13:22:56.833Z,4.30
2022-10-10T13:25:24.085Z,4.10
2022-10-10T13:27:50.832Z,4.00
2022-10-10T13:30:23.613Z,3.93
2022-10-10T13:32:52.880Z,4.30
2022-10-10T13:35:30.103Z,3.83
2022-10-10T13:37:59.506Z,3.87
2022-10-10T13:40:27.105Z,3.53
2022-10-10T13:42:55.106Z,3.67
2022-10-10T13:45:32.448Z,3.80
2022-10-10T13:48:01.898Z,3.30
2022-10-10T13:50:34.529Z,3.40
2022-10-10T13:53:29.137Z,4.03
2022-10-10T13:56:10.784Z,3.30
2022-10-10T13:58:51.087Z,3.77
2022-10-10T14:01:23.275Z,3.00
2022-10-10T14:03:51.816Z,3.70
2022-10-10T14:06:26.317Z,3.10
2022-10-10T14:08:56.398Z,3.10
2022-10-10T14:11:26.920Z,4.13
2022-10-10T14:14:02.609Z,2.70
2022-10-10T14:16:29.081Z,3.30
2022-10-10T14:18:55.519Z,3.23
2022-10-10T14:21:21.931Z,3.10
2022-10-10T14:23:48.368Z,3.07
2022-10-10T14:26:18.615Z,3.23
2022-10-10T14:28:45.769Z,2.80
2022-10-10T14:31:13.265Z,2.93
2022-10-10T14:33:39.847Z,3.63
2022-10-10T14:36:06.780Z,5.30
2022-10-10T14:38:33.626Z,3.93
2022-10-10T14:41:01.223Z,3.83
2022-10-10T14:43:28.022Z,4.10
2022-10-10T14:45:55.134Z,3.13
2022-10-10T14:48:21.613Z,3.40
2022-10-10T14:50:48.810Z,3.37
2022-10-10T14:53:15.907Z,3.17
2022-10-10T14:55:43.667Z,3.80
2022-10-10T14:58:19.405Z,4.00
2022-10-10T15:00:49.640Z,4.43
2022-10-10T15:03:16.207Z,3.83
2022-10-10T15:05:42.755Z,3.33
2022-10-10T15:08:14.928Z,3.23
2022-10-10T15:10:42.871Z,3.93
2022-10-10T15:13:13.808Z,3.20
2022-10-10T15:15:41.032Z,2.97
2022-10-10T15:18:25.722Z,3.03
2022-10-10T15:20:54.654Z,3.50
2022-10-10T15:23:21.630Z,3.70
2022-10-10T15:25:48.037Z,4.00
2022-10-10T15:28:14.587Z,5.50
2022-10-10T15:30:45.206Z,3.17
2022-10-10T15:33:11.650Z,4.20
2022-10-10T15:36:03.855Z,3.80
2022-10-10T15:38:24.819Z,3.97
2022-10-10T15:41:04.187Z,3.97
2022-10-10T15:43:31.398Z,3.13
2022-10-10T15:46:00.671Z,4.00
2022-10-10T15:48:27.662Z,3.67
2022-10-10T15:50:54.042Z,3.60
2022-10-10T15:53:20.615Z,3.27
2022-10-10T15:55:47.958Z,3.23
2022-10-10T15:58:15.367Z,3.60
2022-10-10T16:00:43.627Z,3.80
2022-10-10T16:03:10.081Z,3.80
2022-10-10T16:05:38.443Z,3.90
2022-10-10T16:08:05.447Z,3.93
2022-10-10T16:10:40.453Z,3.80
2022-10-10T16:13:07.749Z,3.00
2022-10-10T16:15:34.473Z,3.40
2022-10-10T16:18:01.255Z,3.90
2022-10-10T16:20:28.532Z,3.80
2022-10-10T16:22:55.272Z,3.60
2022-10-10T16:25:22.941Z,3.90
2022-10-10T16:27:49.920Z,3.80
2022-10-10T16:30:16.629Z,4.40
2022-10-10T16:32:43.120Z,3.87
2022-10-10T16:35:10.974Z,3.50
2022-10-10T16:37:38.478Z,4.00
2022-10-10T16:40:06.048Z,3.50
2022-10-10T16:42:32.494Z,3.73
2022-10-10T16:44:58.887Z,3.93
2022-10-10T16:47:25.287Z,4.30
2022-10-10T16:49:51.730Z,4.00
2022-10-10T16:52:18.595Z,3.53
2022-10-10T16:54:47.764Z,5.03
2022-10-10T16:57:17.939Z,4.10
2022-10-10T16:59:44.355Z,4.53
2022-10-10T17:02:11.967Z,4.07
2022-10-10T17:04:38.376Z,4.30
2022-10-10T17:07:04.812Z,3.43
2022-10-10T17:09:31.272Z,3.87
2022-10-10T17:11:57.711Z,3.77
2022-10-10T17:14:24.158Z,3.67
2022-10-10T17:17:11.094Z,3.90
2022-10-10T17:19:37.123Z,3.57
2022-10-10T17:22:03.626Z,4.17
2022-10-10T17:24:30.078Z,4.07
2022-10-10T17:26:56.559Z,5.23
2022-10-10T17:29:23.658Z,4.63
2022-10-10T17:31:50.425Z,4.60
2022-10-10T17:34:16.876Z,4.53
2022-10-10T17:36:43.325Z,4.77
2022-10-10T17:39:09.788Z,4.30
2022-10-10T17:41:36.590Z,5.10
2022-10-10T17:44:04.478Z,6.43
2022-10-10T17:46:35.432Z,6.27
2022-10-10T17:49:05.165Z,6.67
2022-10-10T17:51:32.190Z,7.10
2022-10-10T17:53:59.862Z,6.90
2022-10-10T17:56:26.687Z,6.00
2022-10-10T17:58:53.203Z,5.73
2022-10-10T18:01:20.230Z,6.30
2022-10-10T18:03:48.504Z,6.10
2022-10-10T18:06:17.995Z,7.80
2022-10-10T18:08:47.126Z,6.50
2022-10-10T18:11:19.231Z,6.70
2022-10-10T18:13:46.396Z,4.90
2022-10-10T18:16:15.476Z,4.87
2022-10-10T18:18:48.221Z,5.20
2022-10-10T18:21:17.872Z,3.87
2022-10-10T18:23:44.394Z,4.00
2022-10-10T18:26:25.470Z,3.30
2022-10-10T18:28:52.630Z,3.43
2022-10-10T18:31:24.377Z,3.97
2022-10-10T18:33:50.892Z,2.90
2022-10-10T18:36:20.109Z,3.17
2022-10-10T18:38:47.042Z,3.77
2022-10-10T18:41:19.720Z,2.70
2022-10-10T18:43:46.927Z,2.70
2022-10-10T18:46:16.063Z,3.00
2022-10-10T18:48:43.989Z,2.30
2022-10-10T18:51:16.148Z,3.00
2022-10-10T18:53:44.915Z,2.80
2022-10-10T18:56:13.342Z,3.40
2022-10-10T18:58:40.766Z,3.10
2022-10-10T19:01:09.992Z,2.93
2022-10-10T19:03:37.757Z,2.80
2022-10-10T19:06:06.802Z,3.30
2022-10-10T19:08:34.374Z,2.50
2022-10-10T19:11:01.577Z,3.10
2022-10-10T19:13:28.400Z,3.10
2022-10-10T19:15:55.315Z,3.57
2022-10-10T19:18:23.000Z,4.27
2022-10-10T19:20:49.703Z,3.67
2022-10-10T19:23:16.229Z,3.70
2022-10-10T19:25:44.408Z,3.70
2022-10-10T19:28:11.021Z,4.47
2022-10-10T19:30:42.348Z,3.63
2022-10-10T19:33:09.876Z,3.63
2022-10-10T19:35:42.170Z,2.60
2022-10-10T19:38:10.091Z,2.37
2022-10-10T19:40:43.717Z,3.63
2022-10-10T19:43:10.152Z,4.13
2022-10-10T19:45:48.491Z,3.50
2022-10-10T19:48:15.775Z,3.10
2022-10-10T19:50:43.852Z,4.20
2022-10-10T19:53:14.568Z,4.00
2022-10-10T19:55:41.574Z,2.50
2022-10-10T19:58:08.027Z,2.97
2022-10-10T20:00:36.557Z,2.90
2022-10-10T20:03:03.072Z,3.07
2022-10-10T20:05:29.453Z,2.80
2022-10-10T20:07:55.906Z,3.13
2022-10-10T20:10:22.364Z,2.90
2022-10-10T20:12:49.217Z,2.87
2022-10-10T20:15:15.825Z,2.87
2022-10-10T20:17:42.304Z,3.00
2022-10-10T20:20:09.096Z,3.90
2022-10-10T20:22:35.596Z,3.07
2022-10-10T20:25:02.089Z,3.67
2022-10-10T20:27:31.176Z,3.43
2022-10-10T20:29:58.217Z,2.60
2022-10-10T20:32:24.904Z,2.80
2022-10-10T20:34:51.392Z,2.70
2022-10-10T20:37:17.790Z,5.07
2022-10-10T20:39:44.414Z,3.07
2022-10-10T20:42:10.853Z,2.80
2022-10-10T20:44:39.344Z,2.70
2022-10-10T20:47:06.789Z,2.50
2022-10-10T20:49:33.267Z,3.27
2022-10-10T20:51:59.711Z,3.77
2022-10-10T20:54:26.169Z,3.17
2022-10-10T20:56:52.641Z,3.67
2022-10-10T20:59:20.794Z,2.57
2022-10-10T21:01:47.299Z,2.97
2022-10-10T21:04:14.188Z,2.70
2022-10-10T21:06:42.693Z,2.57
2022-10-10T21:09:11.058Z,2.60
2022-10-10T21:11:39.111Z,2.30
2022-10-10T21:14:05.856Z,3.50
2022-10-10T21:16:35.401Z,2.60
2022-10-10T21:19:02.425Z,2.80
2022-10-10T21:21:34.748Z,2.70
2022-10-10T21:24:03.661Z,2.33
2022-10-10T21:26:31.156Z,2.33
2022-10-10T21:28:58.324Z,2.90
2022-10-10T21:31:29.239Z,2.97
2022-10-10T21:33:56.648Z,2.80
2022-10-10T21:36:25.656Z,2.40
2022-10-10T21:38:52.984Z,2.90
2022-10-10T21:41:20.338Z,2.83
2022-10-10T21:43:51.378Z,3.27
2022-10-10T21:46:20.069Z,2.90
2022-10-10T21:48:46.457Z,2.77
2022-10-10T21:51:15.547Z,2.57
2022-10-10T21:53:43.262Z,2.60
2022-10-10T21:56:11.379Z,2.60
2022-10-10T21:58:40.808Z,3.80
2022-10-10T22:01:19.189Z,3.30
2022-10-10T22:03:48.035Z,3.73
2022-10-10T22:06:16.928Z,2.20
2022-10-10T22:08:44.067Z,2.70
2022-10-10T22:11:19.697Z,2.57
2022-10-10T22:13:47.087Z,2.40
2022-10-10T22:16:13.981Z,2.13
2022-10-10T22:18:41.019Z,2.33
2022-10-10T22:21:10.977Z,2.53
2022-10-10T22:23:37.461Z,2.70
2022-10-10T22:26:08.395Z,2.90
2022-10-10T22:28:34.952Z,2.40
2022-10-10T22:31:06.048Z,2.40
2022-10-10T22:33:32.564Z,2.47
2022-10-10T22:35:58.982Z,2.70
2022-10-10T22:38:26.180Z,1.87
2022-10-10T22:40:52.975Z,2.50
2022-10-10T22:43:19.446Z,2.10
2022-10-10T22:45:46.029Z,2.20
2022-10-10T22:48:12.454Z,2.37
2022-10-10T22:50:38.970Z,2.70
2022-10-10T22:53:06.154Z,3.00
2022-10-10T22:55:33.582Z,2.40
2022-10-10T22:58:00.090Z,2.60
2022-10-10T23:00:26.627Z,2.50
2022-10-10T23:02:57.055Z,2.37
2022-10-10T23:05:23.898Z,2.43
2022-10-10T23:07:50.389Z,2.53
2022-10-10T23:10:16.888Z,2.57
2022-10-10T23:12:43.401Z,2.10
2022-10-10T23:15:10.227Z,2.33
2022-10-10T23:17:36.940Z,2.77
2022-10-10T23:20:04.136Z,2.30
2022-10-10T23:22:30.563Z,3.20
2022-10-10T23:24:56.971Z,2.03
2022-10-10T23:27:23.447Z,2.00
2022-10-10T23:29:49.853Z,2.47
2022-10-10T23:32:16.263Z,2.83
2022-10-10T23:34:42.695Z,2.63
2022-10-10T23:37:09.151Z,2.70
2022-10-10T23:39:35.716Z,1.80
2022-10-10T23:42:02.172Z,1.93
2022-10-10T23:44:28.838Z,2.90
2022-10-10T23:46:55.303Z,2.37
2022-10-10T23:49:21.712Z,2.30
2022-10-10T23:51:48.139Z,2.13
2022-10-10T23:54:14.581Z,2.90
2022-10-10T23:56:41.169Z,2.30
2022-10-10T23:59:07.776Z,2.30
